Time;durP1;ratioP1;P1;durP2;ratioP2;P2;SDS_P1;SDS_P2;PMS_P1;PMS_P2;Temp;Humidity;BMP_temperature;BMP_pressure;BME280_temperature;BME280_humidity;BME280_pressure;Samples;Min_cycle;Max_cycle;Signal;HPM_P1;HPM_P2
2021/07/03 00:02:00;;;;;;;3.58;2.38;;;18.00;90.70;;;;;;4972975;28;20034;-72
2021/07/03 00:04:26;;;;;;;4.38;2.20;;;17.90;90.90;;;;;;4972968;28;20089;-72
2021/07/03 00:06:52;;;;;;;2.90;2.13;;;17.90;91.10;;;;;;4972912;28;20073;-72
2021/07/03 00:09:19;;;;;;;3.50;2.35;;;18.00;91.40;;;;;;4974248;28;20506;-72
2021/07/03 00:11:46;;;;;;;6.60;2.22;;;17.90;91.70;;;;;;4976936;28;20038;-72
2021/07/03 00:14:13;;;;;;;3.58;1.90;;;17.90;92.10;;;;;;4976980;28;20210;-72
2021/07/03 00:16:39;;;;;;;3.03;1.67;;;17.80;92.70;;;;;;4976960;28;20030;-72
2021/07/03 00:19:05;;;;;;;4.97;2.20;;;17.70;93.30;;;;;;4976661;28;20030;-73
2021/07/03 00:21:31;;;;;;;5.15;2.33;;;17.70;93.60;;;;;;4976813;28;20058;-72
2021/07/03 00:23:58;;;;;;;5.03;2.35;;;17.70;93.70;;;;;;4975151;28;20445;-72
2021/07/03 00:26:24;;;;;;;4.55;2.05;;;17.70;93.80;;;;;;4976523;28;20089;-72
2021/07/03 00:28:50;;;;;;;6.28;2.72;;;17.70;94.30;;;;;;4976518;28;20031;-73
2021/07/03 00:31:16;;;;;;;3.38;1.85;;;17.50;94.80;;;;;;4976397;28;20023;-72
2021/07/03 00:33:42;;;;;;;5.90;2.33;;;17.50;95.40;;;;;;4976223;28;20027;-72
2021/07/03 00:36:07;;;;;;;3.38;2.40;;;17.50;95.60;;;;;;4976634;28;20030;-72
2021/07/03 00:38:33;;;;;;;2.63;2.17;;;17.40;95.90;;;;;;4976376;28;20023;-72
2021/07/03 00:40:59;;;;;;;3.25;2.22;;;17.40;96.40;;;;;;4976616;28;20494;-72
2021/07/03 00:43:24;;;;;;;3.60;2.20;;;17.40;96.70;;;;;;4976508;28;20039;-72
2021/07/03 00:45:50;;;;;;;8.48;2.17;;;17.30;97.10;;;;;;4976601;28;20054;-72
2021/07/03 00:48:16;;;;;;;5.88;2.28;;;17.30;97.30;;;;;;4976392;28;20023;-73
2021/07/03 00:50:43;;;;;;;2.88;2.00;;;17.20;97.70;;;;;;4976289;28;20516;-72
2021/07/03 00:53:09;;;;;;;3.42;2.00;;;17.10;98.00;;;;;;4976011;28;20136;-72
2021/07/03 00:55:36;;;;;;;4.63;2.63;;;17.10;98.40;;;;;;4974689;28;20039;-72
2021/07/03 00:58:01;;;;;;;5.78;2.50;;;17.00;98.70;;;;;;4976028;28;20114;-72
2021/07/03 01:00:27;;;;;;;3.08;2.20;;;17.00;99.40;;;;;;4975725;28;20111;-72
2021/07/03 01:02:53;;;;;;;3.47;2.22;;;16.90;99.80;;;;;;4976143;28;20031;-72
2021/07/03 01:05:19;;;;;;;4.45;2.70;;;16.80;99.90;;;;;;4975877;28;20034;-72
2021/07/03 01:07:45;;;;;;;3.60;2.25;;;16.70;99.90;;;;;;4975561;28;20074;-72
2021/07/03 01:10:24;;;;;;;5.70;2.83;;;16.80;99.90;;;;;;4975846;28;20486;-72
2021/07/03 01:12:53;;;;;;;4.82;2.42;;;16.80;99.90;;;;;;4975492;28;20545;-72
2021/07/03 01:15:20;;;;;;;3.63;2.17;;;16.70;99.90;;;;;;4975807;28;20058;-72
2021/07/03 01:53:50;;;;;;;4.72;2.75;;;16.60;99.90;;;;;;5158274;23;20069;-72
2021/07/03 01:56:16;;;;;;;3.85;2.60;;;16.50;99.90;;;;;;5014234;28;20063;-72
2021/07/03 01:58:42;;;;;;;4.05;2.22;;;16.50;99.90;;;;;;4996320;28;20026;-72
2021/07/03 02:01:08;;;;;;;3.67;2.53;;;16.50;99.90;;;;;;5013939;28;20101;-72
2021/07/03 02:03:33;;;;;;;4.30;2.25;;;16.40;99.90;;;;;;5013773;28;20056;-72
2021/07/03 02:05:59;;;;;;;6.28;2.60;;;16.40;99.90;;;;;;5013803;28;20025;-72
2021/07/03 02:08:25;;;;;;;6.72;2.67;;;16.40;99.90;;;;;;5013515;28;20021;-73
2021/07/03 02:10:51;;;;;;;3.75;2.58;;;16.30;99.90;;;;;;5013806;28;20022;-73
2021/07/03 02:13:16;;;;;;;4.53;2.45;;;16.30;99.90;;;;;;5013952;28;20359;-72
2021/07/03 02:15:42;;;;;;;4.45;3.10;;;16.30;99.90;;;;;;5013974;28;20120;-72
2021/07/03 02:18:09;;;;;;;3.25;2.20;;;16.30;99.90;;;;;;5013475;28;20025;-73
2021/07/03 02:20:34;;;;;;;6.28;2.33;;;16.30;99.90;;;;;;5013369;28;20022;-73
2021/07/03 02:23:01;;;;;;;3.63;2.33;;;16.30;99.90;;;;;;5013373;28;20101;-73
2021/07/03 02:25:28;;;;;;;3.25;2.45;;;16.40;99.90;;;;;;5013483;28;20037;-73
2021/07/03 02:27:54;;;;;;;3.28;2.42;;;16.40;99.90;;;;;;5013450;28;20077;-73
2021/07/03 02:30:21;;;;;;;4.03;2.00;;;16.40;99.90;;;;;;5013615;28;20029;-73
2021/07/03 02:32:47;;;;;;;4.57;2.30;;;16.40;99.90;;;;;;5012462;28;20026;-73
2021/07/03 02:35:15;;;;;;;3.50;2.45;;;16.40;99.90;;;;;;5013292;28;20473;-73
2021/07/03 02:37:41;;;;;;;3.78;2.67;;;16.50;99.90;;;;;;5013364;28;20041;-73
2021/07/03 02:40:09;;;;;;;3.67;2.40;;;16.50;99.90;;;;;;5013552;28;20022;-73
2021/07/03 02:42:35;;;;;;;4.55;2.58;;;16.50;99.90;;;;;;5012848;28;20026;-73
2021/07/03 02:45:01;;;;;;;3.42;2.42;;;16.50;99.90;;;;;;5013000;28;20060;-73
2021/07/03 02:47:27;;;;;;;2.92;2.38;;;16.50;99.90;;;;;;5012956;28;20030;-73
2021/07/03 02:49:53;;;;;;;3.85;2.42;;;16.50;99.90;;;;;;5012936;28;20034;-73
2021/07/03 02:52:18;;;;;;;3.25;2.40;;;16.70;99.90;;;;;;5012881;28;20038;-72
2021/07/03 02:54:44;;;;;;;5.57;2.58;;;16.90;99.90;;;;;;5012914;28;20648;-73
2021/07/03 02:57:10;;;;;;;4.40;2.58;;;17.20;99.90;;;;;;5013132;28;20105;-72
2021/07/03 02:59:36;;;;;;;3.58;2.20;;;17.40;99.90;;;;;;5012644;28;20384;-73
2021/07/03 03:02:02;;;;;;;3.67;2.35;;;17.40;99.90;;;;;;5013117;28;20052;-73
2021/07/03 03:04:27;;;;;;;4.07;2.70;;;17.40;99.90;;;;;;5012675;28;20100;-73
2021/07/03 03:06:53;;;;;;;3.28;2.28;;;17.50;99.90;;;;;;5012846;28;20441;-73
2021/07/03 03:09:19;;;;;;;4.75;2.42;;;17.50;99.90;;;;;;5012808;28;20112;-73
2021/07/03 03:11:45;;;;;;;5.95;2.50;;;17.50;99.90;;;;;;5012712;28;20456;-73
2021/07/03 03:14:10;;;;;;;5.93;2.40;;;17.50;99.90;;;;;;5012576;28;20025;-73
2021/07/03 03:16:36;;;;;;;3.67;2.60;;;17.50;99.90;;;;;;5012400;28;20112;-73
2021/07/03 03:19:02;;;;;;;3.42;2.60;;;17.60;99.90;;;;;;5012802;28;20068;-73
2021/07/03 03:21:28;;;;;;;3.22;2.22;;;17.70;99.90;;;;;;5012995;28;20377;-73
2021/07/03 03:23:54;;;;;;;5.65;2.67;;;17.90;99.90;;;;;;5012325;28;20030;-73
2021/07/03 03:26:20;;;;;;;3.75;2.50;;;18.40;99.90;;;;;;5012707;28;20033;-73
2021/07/03 03:28:46;;;;;;;6.28;2.53;;;18.80;99.90;;;;;;5012528;28;20060;-73
2021/07/03 03:31:11;;;;;;;4.07;2.47;;;19.20;99.90;;;;;;5012430;28;20033;-73
2021/07/03 03:33:37;;;;;;;3.25;2.28;;;19.50;99.90;;;;;;5012306;28;20057;-73
2021/07/03 03:36:04;;;;;;;4.47;2.58;;;19.80;99.30;;;;;;5012619;28;20099;-73
2021/07/03 03:38:30;;;;;;;3.65;2.33;;;20.10;98.50;;;;;;5011968;28;20033;-72
2021/07/03 03:40:56;;;;;;;4.47;2.28;;;20.30;97.60;;;;;;5012557;28;20112;-72
2021/07/03 03:43:21;;;;;;;6.00;2.55;;;20.60;96.70;;;;;;5011984;28;20053;-73
2021/07/03 03:45:47;;;;;;;5.63;2.78;;;20.90;95.50;;;;;;5012218;28;20499;-73
2021/07/03 03:48:13;;;;;;;5.03;2.50;;;21.10;94.40;;;;;;5012134;28;20109;-73
2021/07/03 03:50:39;;;;;;;3.42;2.63;;;21.40;93.40;;;;;;5012006;28;20029;-73
2021/07/03 03:53:05;;;;;;;3.75;2.53;;;21.60;92.30;;;;;;5011819;28;20052;-73
2021/07/03 03:55:30;;;;;;;5.75;2.75;;;21.90;91.30;;;;;;5012009;28;20026;-73
2021/07/03 03:57:56;;;;;;;3.25;2.25;;;22.10;90.10;;;;;;5012073;28;20311;-73
2021/07/03 04:00:22;;;;;;;4.70;2.47;;;22.40;89.20;;;;;;4994536;28;20033;-73
2021/07/03 04:02:48;;;;;;;5.18;2.42;;;22.60;88.40;;;;;;5011974;28;20036;-73
2021/07/03 04:05:15;;;;;;;2.40;2.20;;;22.80;86.70;;;;;;5012010;28;20042;-73
2021/07/03 04:07:42;;;;;;;4.50;2.40;;;23.00;85.60;;;;;;5012193;28;20026;-73
2021/07/03 04:10:10;;;;;;;3.55;2.63;;;23.30;85.00;;;;;;5012181;28;20032;-73
2021/07/03 04:12:36;;;;;;;4.68;2.70;;;23.60;82.20;;;;;;5011774;28;20105;-73
2021/07/03 04:15:03;;;;;;;4.95;2.60;;;24.00;80.00;;;;;;5011886;28;20129;-73
2021/07/03 04:17:29;;;;;;;3.58;2.28;;;24.20;77.70;;;;;;5012085;28;20165;-73
2021/07/03 04:19:55;;;;;;;4.00;2.25;;;24.50;75.90;;;;;;5012176;28;20376;-73
2021/07/03 04:22:21;;;;;;;2.90;2.00;;;24.80;74.00;;;;;;5011795;28;20389;-73
2021/07/03 04:24:47;;;;;;;3.03;2.30;;;25.10;71.80;;;;;;5011566;28;20042;-73
2021/07/03 04:27:13;;;;;;;3.05;2.25;;;25.30;70.10;;;;;;4994460;28;20033;-73
2021/07/03 04:29:39;;;;;;;4.25;2.00;;;25.50;69.60;;;;;;5011549;28;20033;-73
2021/07/03 04:32:05;;;;;;;3.42;2.20;;;25.80;68.20;;;;;;5011842;28;20022;-73
2021/07/03 04:34:32;;;;;;;4.07;2.10;;;26.00;66.60;;;;;;4994192;28;20425;-73
2021/07/03 04:36:59;;;;;;;4.43;2.55;;;26.30;66.10;;;;;;5012065;28;20053;-73
2021/07/03 04:39:25;;;;;;;2.22;2.03;;;26.50;65.50;;;;;;5011589;28;20026;-73
2021/07/03 04:41:52;;;;;;;3.50;2.20;;;26.80;63.40;;;;;;5011608;28;20524;-73
2021/07/03 04:44:17;;;;;;;3.20;2.42;;;26.90;62.30;;;;;;5011589;28;20034;-73
2021/07/03 04:46:44;;;;;;;3.80;2.35;;;27.10;62.00;;;;;;5011737;28;20076;-73
2021/07/03 04:49:10;;;;;;;3.10;2.13;;;27.20;60.00;;;;;;5011784;28;20030;-73
2021/07/03 04:51:36;;;;;;;3.20;2.50;;;27.30;60.00;;;;;;5011359;28;20355;-73
2021/07/03 04:54:03;;;;;;;4.03;2.38;;;27.50;59.20;;;;;;5011267;28;20088;-73
2021/07/03 04:56:29;;;;;;;3.17;2.33;;;27.60;58.60;;;;;;5013119;28;20049;-73
2021/07/03 04:58:56;;;;;;;3.05;2.00;;;27.80;58.20;;;;;;5014959;28;20490;-73
2021/07/03 05:01:22;;;;;;;2.92;2.30;;;28.00;57.10;;;;;;5015596;28;20056;-73
2021/07/03 05:03:48;;;;;;;2.45;2.00;;;28.20;56.40;;;;;;5014696;28;20014;-73
2021/07/03 05:06:13;;;;;;;2.78;2.10;;;28.50;56.00;;;;;;5015178;28;20066;-73
2021/07/03 05:08:39;;;;;;;3.67;2.30;;;28.60;56.20;;;;;;5014714;28;20060;-74
2021/07/03 05:11:05;;;;;;;4.22;2.30;;;28.80;56.60;;;;;;5015116;28;20060;-73
2021/07/03 05:13:31;;;;;;;3.60;2.30;;;29.00;55.10;;;;;;5014652;28;20125;-73
2021/07/03 05:15:57;;;;;;;3.55;2.35;;;29.20;54.30;;;;;;5014713;28;20552;-73
2021/07/03 05:18:23;;;;;;;3.03;2.25;;;29.10;53.80;;;;;;5014673;28;20025;-73
2021/07/03 05:20:48;;;;;;;3.65;2.30;;;29.10;53.50;;;;;;5014644;28;20109;-73
2021/07/03 05:23:14;;;;;;;3.50;2.30;;;29.30;53.60;;;;;;5014526;28;20034;-73
2021/07/03 05:25:42;;;;;;;3.55;2.20;;;29.40;53.60;;;;;;5014464;28;20034;-73
2021/07/03 05:28:08;;;;;;;4.80;2.50;;;29.50;53.60;;;;;;5014742;28;20026;-74
2021/07/03 05:30:34;;;;;;;6.90;2.22;;;29.50;52.90;;;;;;5014359;28;20375;-74
2021/07/03 05:33:00;;;;;;;4.15;2.30;;;29.70;53.50;;;;;;5014430;28;20121;-73
2021/07/03 05:35:26;;;;;;;2.60;2.20;;;29.90;53.30;;;;;;5014578;28;20125;-74
2021/07/03 05:37:52;;;;;;;2.63;1.90;;;30.10;53.00;;;;;;5014278;28;20024;-74
2021/07/03 05:40:18;;;;;;;3.40;2.33;;;30.10;52.40;;;;;;5014614;28;20041;-74
2021/07/03 05:42:44;;;;;;;6.25;2.28;;;30.20;53.10;;;;;;5014373;28;20025;-74
2021/07/03 05:45:13;;;;;;;3.45;2.53;;;30.40;51.90;;;;;;5014340;28;20041;-73
2021/07/03 05:47:39;;;;;;;4.10;2.28;;;30.50;51.50;;;;;;5014082;28;20025;-73
2021/07/03 05:50:06;;;;;;;3.17;2.15;;;30.50;50.50;;;;;;5014348;28;20389;-74
2021/07/03 05:52:32;;;;;;;2.75;1.70;;;30.60;50.10;;;;;;5013653;28;20052;-74
2021/07/03 05:54:58;;;;;;;2.70;1.90;;;30.70;50.60;;;;;;5014247;28;20037;-74
2021/07/03 05:57:26;;;;;;;3.53;2.10;;;30.80;50.10;;;;;;5014013;28;20026;-74
2021/07/03 05:59:52;;;;;;;3.67;2.38;;;31.00;49.60;;;;;;5013849;28;20104;-74
2021/07/03 06:02:17;;;;;;;3.63;2.45;;;31.10;49.40;;;;;;5014212;28;20053;-74
2021/07/03 06:04:43;;;;;;;3.10;1.98;;;31.10;49.10;;;;;;5013464;28;20060;-74
2021/07/03 06:07:09;;;;;;;3.55;2.03;;;31.20;49.60;;;;;;5013540;28;20030;-74
2021/07/03 06:09:34;;;;;;;2.40;1.83;;;31.20;49.30;;;;;;4995996;28;20032;-74
2021/07/03 06:12:00;;;;;;;2.95;2.13;;;31.50;49.80;;;;;;5013790;28;20049;-74
2021/07/03 06:14:26;;;;;;;3.45;1.88;;;31.50;48.50;;;;;;5013868;28;20393;-74
2021/07/03 06:16:52;;;;;;;2.30;1.90;;;31.50;48.80;;;;;;5013465;28;20083;-74
2021/07/03 06:19:20;;;;;;;3.30;2.40;;;31.60;49.80;;;;;;5013785;28;20030;-74
2021/07/03 06:21:46;;;;;;;4.13;1.98;;;31.70;49.60;;;;;;5013696;28;20041;-74
2021/07/03 06:24:13;;;;;;;5.30;1.80;;;31.70;49.30;;;;;;5013484;28;20091;-74
2021/07/03 06:26:40;;;;;;;2.25;2.03;;;31.70;49.70;;;;;;5013381;28;20172;-74
2021/07/03 06:29:05;;;;;;;3.60;2.17;;;31.60;48.90;;;;;;5013589;28;20085;-74
2021/07/03 06:31:31;;;;;;;3.22;2.15;;;31.50;48.90;;;;;;5013168;28;20113;-74
2021/07/03 06:33:57;;;;;;;2.95;1.77;;;31.50;49.00;;;;;;5013312;28;20154;-74
2021/07/03 06:36:23;;;;;;;2.63;1.92;;;31.40;49.10;;;;;;5013274;28;20025;-74
2021/07/03 06:38:49;;;;;;;4.10;2.60;;;31.40;50.00;;;;;;5013078;28;20024;-74
2021/07/03 06:41:14;;;;;;;4.20;2.33;;;31.50;50.10;;;;;;5013523;28;20382;-74
2021/07/03 06:43:40;;;;;;;3.40;2.20;;;31.50;50.80;;;;;;5012845;28;20396;-74
2021/07/03 06:46:06;;;;;;;5.60;2.00;;;31.50;50.80;;;;;;5013260;28;20042;-74
2021/07/03 06:48:31;;;;;;;3.08;2.25;;;31.60;50.80;;;;;;5013166;28;20025;-73
2021/07/03 06:50:57;;;;;;;4.57;2.10;;;31.50;50.30;;;;;;5013087;28;20026;-74
2021/07/03 06:53:23;;;;;;;3.92;2.50;;;31.50;50.10;;;;;;5012781;28;20406;-73
2021/07/03 06:55:49;;;;;;;2.45;2.00;;;31.50;49.90;;;;;;5012752;28;20032;-74
2021/07/03 06:58:14;;;;;;;2.20;1.88;;;31.40;50.50;;;;;;5013208;28;20084;-74
2021/07/03 07:00:40;;;;;;;2.85;1.98;;;31.30;50.30;;;;;;5012662;28;20504;-74
2021/07/03 07:03:06;;;;;;;2.88;2.00;;;31.40;50.70;;;;;;5012745;28;20088;-74
2021/07/03 07:05:32;;;;;;;4.68;2.25;;;31.40;51.10;;;;;;5013070;28;20038;-73
2021/07/03 07:07:57;;;;;;;2.63;1.70;;;31.50;51.00;;;;;;5012775;28;20017;-74
2021/07/03 07:10:23;;;;;;;3.25;1.90;;;31.70;50.50;;;;;;5012822;28;20041;-73
2021/07/03 07:12:49;;;;;;;2.95;1.60;;;31.70;50.30;;;;;;5012438;28;20182;-74
2021/07/03 07:15:16;;;;;;;2.42;1.80;;;31.80;50.10;;;;;;5012776;28;20109;-74
2021/07/03 07:17:42;;;;;;;2.53;1.88;;;31.60;48.40;;;;;;5012680;28;20049;-74
2021/07/03 07:20:09;;;;;;;2.78;1.80;;;31.40;49.60;;;;;;5012138;28;20085;-74
2021/07/03 07:22:34;;;;;;;2.58;1.98;;;31.40;50.00;;;;;;5012558;28;20389;-74
2021/07/03 07:25:00;;;;;;;3.38;1.63;;;31.40;49.40;;;;;;5012299;28;20030;-74
2021/07/03 07:27:26;;;;;;;2.80;2.17;;;31.30;49.10;;;;;;5012443;28;20025;-74
2021/07/03 07:29:52;;;;;;;4.65;1.77;;;31.20;49.50;;;;;;5012269;28;20026;-74
2021/07/03 07:32:18;;;;;;;2.47;1.90;;;31.00;49.10;;;;;;5012351;28;20105;-74
2021/07/03 07:34:43;;;;;;;2.45;1.80;;;30.90;49.40;;;;;;5012372;28;20021;-74
2021/07/03 07:37:09;;;;;;;3.53;2.22;;;30.80;49.70;;;;;;5012356;28;20481;-73
2021/07/03 07:39:35;;;;;;;2.08;1.70;;;30.80;49.60;;;;;;5012130;28;20026;-74
2021/07/03 07:42:01;;;;;;;2.10;1.75;;;30.80;50.00;;;;;;5012553;28;20026;-73
2021/07/03 07:44:27;;;;;;;5.10;1.90;;;30.70;50.60;;;;;;5012326;28;20428;-74
2021/07/03 07:46:52;;;;;;;3.13;2.10;;;30.80;50.80;;;;;;5012117;28;20397;-73
2021/07/03 07:49:18;;;;;;;7.55;2.17;;;30.80;50.90;;;;;;5012117;28;20018;-73
2021/07/03 07:51:44;;;;;;;2.42;1.98;;;30.80;50.80;;;;;;5011927;28;20034;-74
2021/07/03 07:54:10;;;;;;;3.25;1.90;;;30.60;50.30;;;;;;5012000;28;20050;-73
2021/07/03 07:56:35;;;;;;;2.47;1.85;;;30.40;50.40;;;;;;5011922;28;20025;-74
2021/07/03 07:59:01;;;;;;;3.15;1.88;;;30.30;50.80;;;;;;5012020;28;20027;-74
2021/07/03 08:01:27;;;;;;;2.17;1.83;;;30.30;50.90;;;;;;5012100;28;20026;-74
2021/07/03 08:03:52;;;;;;;2.30;2.10;;;30.20;51.10;;;;;;5011945;28;20030;-73
2021/07/03 08:06:18;;;;;;;2.50;2.00;;;30.20;51.70;;;;;;5012078;28;20500;-73
2021/07/03 08:08:44;;;;;;;2.38;1.77;;;30.30;52.10;;;;;;5012042;28;20022;-74
2021/07/03 08:11:10;;;;;;;2.25;2.00;;;30.30;52.80;;;;;;5011869;28;20397;-73
2021/07/03 08:13:35;;;;;;;3.35;2.00;;;30.20;51.40;;;;;;5011828;28;20029;-73
2021/07/03 08:16:01;;;;;;;3.45;2.22;;;30.00;51.70;;;;;;5011798;28;20026;-73
2021/07/03 08:18:27;;;;;;;2.28;1.95;;;30.00;52.80;;;;;;5012205;28;20026;-74
2021/07/03 08:20:53;;;;;;;4.22;1.90;;;30.00;51.70;;;;;;5011909;28;20017;-73
2021/07/03 08:23:19;;;;;;;2.08;1.60;;;30.10;52.00;;;;;;5012132;28;20026;-73
2021/07/03 08:25:45;;;;;;;4.30;2.00;;;30.20;51.90;;;;;;5011632;28;20057;-74
2021/07/03 08:28:11;;;;;;;3.15;1.95;;;30.40;52.30;;;;;;5011842;28;20027;-74
2021/07/03 08:30:36;;;;;;;2.25;1.88;;;30.40;51.80;;;;;;5013510;28;20053;-73
2021/07/03 08:33:02;;;;;;;2.58;2.00;;;30.40;50.90;;;;;;5015754;28;20044;-73
2021/07/03 08:35:28;;;;;;;2.97;1.90;;;30.30;51.30;;;;;;5015631;28;20026;-73
2021/07/03 08:37:54;;;;;;;2.72;1.70;;;30.20;52.70;;;;;;5015290;28;20381;-73
2021/07/03 08:40:21;;;;;;;3.33;2.25;;;30.10;51.80;;;;;;5015292;28;20120;-74
2021/07/03 08:42:47;;;;;;;3.22;1.80;;;30.20;52.10;;;;;;5015148;28;20030;-74
2021/07/03 08:45:14;;;;;;;2.22;1.80;;;30.20;51.80;;;;;;5015203;28;20422;-74
2021/07/03 08:47:42;;;;;;;3.78;1.88;;;30.10;52.00;;;;;;5015439;28;20072;-74
2021/07/03 08:50:10;;;;;;;3.40;1.90;;;30.20;52.20;;;;;;5015373;28;20037;-74
2021/07/03 08:52:36;;;;;;;2.55;1.90;;;30.10;51.60;;;;;;5014777;28;20728;-74
2021/07/03 08:55:14;;;;;;;2.10;1.83;;;30.00;51.70;;;;;;5015077;28;20069;-74
2021/07/03 08:57:51;;;;;;;3.65;2.20;;;30.10;53.30;;;;;;5014922;28;20022;-74
2021/07/03 09:00:39;;;;;;;3.03;2.20;;;30.20;52.70;;;;;;5014903;28;20022;-73
2021/07/03 09:03:23;;;;;;;3.63;2.03;;;30.10;52.00;;;;;;5014967;28;20018;-73
2021/07/03 09:05:54;;;;;;;2.65;2.00;;;29.90;52.50;;;;;;5014705;28;20393;-73
2021/07/03 09:08:30;;;;;;;2.30;2.10;;;29.90;53.20;;;;;;5014951;28;20022;-74
2021/07/03 09:11:03;;;;;;;2.30;2.05;;;29.90;53.40;;;;;;5014790;28;20030;-73
2021/07/03 09:13:30;;;;;;;3.63;2.05;;;30.00;53.10;;;;;;5014834;28;20018;-73
2021/07/03 09:15:56;;;;;;;6.68;1.98;;;30.00;53.50;;;;;;5014831;28;20074;-73
2021/07/03 09:18:22;;;;;;;4.18;1.83;;;30.10;53.20;;;;;;5014805;28;20056;-74
2021/07/03 09:20:52;;;;;;;3.25;1.90;;;30.10;53.00;;;;;;5014515;28;20100;-73
2021/07/03 09:23:22;;;;;;;3.35;2.10;;;29.90;52.80;;;;;;5014782;28;20092;-74
2021/07/03 09:25:50;;;;;;;3.00;2.08;;;29.80;53.90;;;;;;5014554;28;20037;-73
2021/07/03 09:28:19;;;;;;;4.88;2.25;;;29.90;53.70;;;;;;5014742;28;20026;-73
2021/07/03 09:30:47;;;;;;;3.35;2.00;;;29.90;53.30;;;;;;5014492;28;20033;-73
2021/07/03 09:33:25;;;;;;;4.65;2.20;;;29.80;53.30;;;;;;5014456;28;20018;-73
2021/07/03 09:36:00;;;;;;;4.38;2.40;;;29.70;53.70;;;;;;5014605;28;20033;-73
2021/07/03 09:38:43;;;;;;;4.38;2.22;;;29.60;53.60;;;;;;5014311;28;20049;-73
2021/07/03 09:41:24;;;;;;;3.70;2.40;;;29.50;54.30;;;;;;5014372;28;20461;-73
2021/07/03 09:43:50;;;;;;;3.22;2.22;;;29.60;54.00;;;;;;5013876;28;20444;-73
2021/07/03 09:46:23;;;;;;;3.10;2.08;;;29.60;53.80;;;;;;5014142;28;20065;-74
2021/07/03 09:48:51;;;;;;;3.78;2.35;;;29.60;54.90;;;;;;5014260;28;20026;-73
2021/07/03 09:51:17;;;;;;;4.00;2.33;;;29.70;54.80;;;;;;5013842;28;20030;-74
2021/07/03 09:53:44;;;;;;;4.18;2.20;;;29.70;54.10;;;;;;5013591;28;20042;-73
2021/07/03 09:56:11;;;;;;;2.95;2.17;;;29.70;54.20;;;;;;5013913;28;20072;-73
2021/07/03 09:58:37;;;;;;;3.78;2.15;;;29.70;54.00;;;;;;5014062;28;20025;-73
2021/07/03 10:01:03;;;;;;;4.90;2.20;;;29.70;53.90;;;;;;5013998;28;20033;-74
2021/07/03 10:03:29;;;;;;;4.43;2.20;;;29.60;53.70;;;;;;5013851;28;20021;-73
2021/07/03 10:05:58;;;;;;;3.92;2.45;;;29.60;53.70;;;;;;5013371;28;20485;-73
2021/07/03 10:08:26;;;;;;;2.65;2.15;;;29.60;54.20;;;;;;5013831;28;20026;-73
2021/07/03 10:10:57;;;;;;;3.38;2.00;;;29.60;53.70;;;;;;5013465;28;20034;-73
2021/07/03 10:13:24;;;;;;;3.00;2.35;;;29.70;53.80;;;;;;5013966;28;20034;-74
2021/07/03 10:16:00;;;;;;;4.80;2.47;;;29.80;54.70;;;;;;5013603;28;20532;-74
2021/07/03 10:18:26;;;;;;;3.40;2.35;;;29.80;53.50;;;;;;5013463;28;20022;-74
2021/07/03 10:20:54;;;;;;;4.07;2.50;;;29.80;53.90;;;;;;5013908;28;20100;-74
2021/07/03 10:23:20;;;;;;;5.18;3.00;;;29.90;53.80;;;;;;5013669;28;20408;-74
2021/07/03 10:25:50;;;;;;;3.85;2.55;;;29.90;53.20;;;;;;5013044;28;20560;-74
2021/07/03 10:28:17;;;;;;;3.50;2.60;;;29.80;52.70;;;;;;5013564;28;20100;-74
2021/07/03 10:30:45;;;;;;;4.25;2.70;;;29.80;53.20;;;;;;5012982;28;20084;-74
2021/07/03 10:33:20;;;;;;;5.80;2.63;;;30.00;53.10;;;;;;5013276;28;20022;-74
2021/07/03 10:35:50;;;;;;;4.65;2.60;;;29.90;52.60;;;;;;5013084;28;20022;-73
2021/07/03 10:38:15;;;;;;;3.92;2.40;;;29.80;52.60;;;;;;5013147;28;20210;-73
2021/07/03 10:40:41;;;;;;;6.32;2.60;;;29.70;52.60;;;;;;5013187;28;20076;-73
2021/07/03 10:43:10;;;;;;;3.70;2.33;;;29.70;52.60;;;;;;5012944;28;20018;-73
2021/07/03 10:45:51;;;;;;;2.95;2.20;;;29.70;52.80;;;;;;5012934;28;20042;-73
2021/07/03 10:48:24;;;;;;;3.80;2.80;;;29.70;52.80;;;;;;5013033;28;20018;-73
2021/07/03 10:50:53;;;;;;;4.20;2.50;;;29.60;52.60;;;;;;5012910;28;20481;-74
2021/07/03 10:53:25;;;;;;;3.78;2.78;;;29.50;52.90;;;;;;5012074;28;20045;-76
2021/07/03 10:55:52;;;;;;;3.92;2.30;;;29.50;52.90;;;;;;5012479;28;20034;-73
2021/07/03 10:58:21;;;;;;;2.95;2.03;;;29.40;52.80;;;;;;5013115;28;20050;-74
2021/07/03 11:00:51;;;;;;;5.32;2.30;;;29.40;52.60;;;;;;5012435;28;20026;-74
2021/07/03 11:03:25;;;;;;;3.88;2.30;;;29.30;52.70;;;;;;5012783;28;20080;-74
2021/07/03 11:05:52;;;;;;;5.78;2.25;;;29.30;53.00;;;;;;5012384;28;20030;-74
2021/07/03 11:08:22;;;;;;;3.95;2.33;;;29.40;52.80;;;;;;5012749;28;20018;-74
2021/07/03 11:10:48;;;;;;;3.67;2.28;;;29.40;52.70;;;;;;5012404;28;20030;-74
2021/07/03 11:13:24;;;;;;;4.88;2.47;;;29.40;53.10;;;;;;5012521;28;20057;-74
2021/07/03 11:15:51;;;;;;;3.00;2.30;;;29.50;52.40;;;;;;5012756;28;20084;-74
2021/07/03 11:18:17;;;;;;;5.65;2.90;;;29.50;52.60;;;;;;5012775;28;20389;-74
2021/07/03 11:20:44;;;;;;;5.10;2.60;;;29.60;52.50;;;;;;5012394;28;20497;-74
2021/07/03 11:23:11;;;;;;;5.28;2.55;;;29.50;51.90;;;;;;5012348;28;20030;-74
2021/07/03 11:25:42;;;;;;;4.10;2.50;;;29.50;52.50;;;;;;5012485;28;20668;-74
2021/07/03 11:28:13;;;;;;;3.88;2.60;;;29.50;51.90;;;;;;5012222;28;20109;-74
2021/07/03 11:30:45;;;;;;;2.80;2.08;;;29.40;52.10;;;;;;5012179;28;20029;-74
2021/07/03 11:33:11;;;;;;;4.32;2.50;;;29.40;52.30;;;;;;5012474;28;20053;-74
2021/07/03 11:35:49;;;;;;;4.38;2.08;;;29.40;51.90;;;;;;5012108;28;20070;-74
2021/07/03 11:38:22;;;;;;;8.40;2.63;;;29.40;52.10;;;;;;5012306;28;20318;-74
2021/07/03 11:40:54;;;;;;;4.65;2.40;;;29.40;51.70;;;;;;5012091;28;20033;-73
2021/07/03 11:43:21;;;;;;;3.70;2.17;;;29.30;51.60;;;;;;5012234;28;20547;-74
2021/07/03 11:45:47;;;;;;;6.45;2.60;;;29.40;51.70;;;;;;5011868;28;20088;-74
2021/07/03 11:48:18;;;;;;;2.97;2.42;;;29.40;51.80;;;;;;5012182;28;20022;-74
2021/07/03 11:50:49;;;;;;;2.83;2.22;;;29.50;51.50;;;;;;5012092;28;20026;-74
2021/07/03 11:53:18;;;;;;;3.20;2.40;;;29.50;51.60;;;;;;5011770;28;20502;-74
2021/07/03 11:55:47;;;;;;;4.55;2.40;;;29.50;51.10;;;;;;5012147;28;20368;-74
2021/07/03 11:58:15;;;;;;;2.70;1.98;;;29.40;51.10;;;;;;5012123;28;20022;-74
2021/07/03 12:00:58;;;;;;;4.07;2.40;;;29.40;51.10;;;;;;5011911;28;20034;-74
2021/07/03 12:03:30;;;;;;;4.35;2.22;;;29.40;51.70;;;;;;5012357;28;20389;-74
2021/07/03 12:05:58;;;;;;;2.83;2.00;;;29.40;51.70;;;;;;5013834;28;20547;-74
2021/07/03 12:08:51;;;;;;;4.13;2.27;;;29.50;51.50;;;;;;5016005;28;20481;-74
2021/07/03 12:11:20;;;;;;;7.40;2.30;;;29.50;51.80;;;;;;5012005;28;20123;-74
2021/07/03 12:13:52;;;;;;;4.45;2.33;;;29.40;51.70;;;;;;5016018;28;20580;-74
2021/07/03 12:16:25;;;;;;;5.55;2.47;;;29.40;51.70;;;;;;5015672;28;20030;-74
2021/07/03 12:18:53;;;;;;;3.63;2.22;;;29.40;51.70;;;;;;5015977;28;20022;-74
2021/07/03 12:21:23;;;;;;;2.45;1.92;;;29.40;50.90;;;;;;5015554;28;20026;-74
2021/07/03 12:23:50;;;;;;;4.60;2.08;;;29.40;51.20;;;;;;5015503;28;20497;-74
2021/07/03 12:26:32;;;;;;;3.13;2.15;;;29.30;51.30;;;;;;5015568;28;20076;-74
2021/07/03 12:29:11;;;;;;;5.20;2.42;;;29.30;51.20;;;;;;5015516;28;20030;-74
2021/07/03 12:31:43;;;;;;;4.70;2.38;;;29.30;50.70;;;;;;5015506;28;20480;-74
2021/07/03 12:34:14;;;;;;;2.20;1.80;;;29.30;50.70;;;;;;5015701;28;20385;-74
2021/07/03 12:36:47;;;;;;;2.85;2.00;;;29.30;50.70;;;;;;5015497;28;20052;-74
2021/07/03 12:39:18;;;;;;;6.30;2.20;;;29.30;50.60;;;;;;5015352;28;20176;-74
2021/07/03 12:41:56;;;;;;;4.70;2.00;;;29.20;50.60;;;;;;5015270;28;20036;-74
2021/07/03 12:45:03;;;;;;;2.63;2.13;;;29.20;50.60;;;;;;5015419;28;20022;-73
2021/07/03 12:47:29;;;;;;;4.03;2.25;;;29.20;50.50;;;;;;4967491;28;20042;-74
2021/07/03 12:49:59;;;;;;;2.70;1.70;;;29.20;50.60;;;;;;5015129;28;20022;-74
2021/07/03 12:52:44;;;;;;;2.40;2.00;;;29.20;50.60;;;;;;5015008;28;20022;-73
2021/07/03 12:55:11;;;;;;;3.67;2.05;;;29.20;50.40;;;;;;5014961;28;20072;-74
2021/07/03 12:57:47;;;;;;;4.05;2.00;;;29.20;50.70;;;;;;5015040;28;20124;-73
2021/07/03 13:00:14;;;;;;;3.80;1.85;;;29.20;50.40;;;;;;5014688;28;20389;-74
2021/07/03 13:02:40;;;;;;;6.68;2.25;;;29.20;50.40;;;;;;5015174;28;20381;-74
2021/07/03 13:05:07;;;;;;;2.42;2.00;;;29.20;50.30;;;;;;5014757;28;20036;-74
2021/07/03 13:07:33;;;;;;;2.67;1.85;;;29.20;50.10;;;;;;5014894;28;20567;-74
2021/07/03 13:10:00;;;;;;;4.25;1.98;;;29.20;49.90;;;;;;5014586;28;20065;-74
2021/07/03 13:12:25;;;;;;;2.70;2.00;;;29.20;49.80;;;;;;5014851;28;20389;-74
2021/07/03 13:14:51;;;;;;;2.20;1.80;;;29.20;49.80;;;;;;5014659;28;20018;-74
2021/07/03 13:17:17;;;;;;;2.22;1.80;;;29.20;49.90;;;;;;5013805;28;20507;-74
2021/07/03 13:19:43;;;;;;;2.13;1.73;;;29.30;49.60;;;;;;4997001;28;20025;-73
2021/07/03 13:22:09;;;;;;;2.92;1.90;;;29.20;49.20;;;;;;5014432;28;20026;-73
2021/07/03 13:24:34;;;;;;;20.17;3.13;;;29.30;49.50;;;;;;5014529;28;20113;-73
2021/07/03 13:27:00;;;;;;;2.80;1.70;;;29.20;48.90;;;;;;5014363;28;20112;-74